EZY65AG EGKK-LEPA
Flight info
| Callsign | EZY65AG |
|---|---|
| Flight time | 1h 54m |
| Altitude | 33000 |
| Route | SFD Y47 DRAKE L151 SITET UN859 SOPIL DCT BALAN DCT EVPOK DCT NARAK DCT GAI DCT LOMRA DCT ROCAN DCT IBRAP DCT LUKEV DCT LORES |
| Aircraft | A320/M-SDE3FGHIRWY/LB1 |
Departure
| Time | 2026-05-05 18:26 |
|---|---|
| Airport | London Gatwick Airport (EGKK) |
Arrival
| Time | 2026-05-05 20:21 |
|---|---|
| Airport | Palma de Mallorca Airport (LEPA) |
| Time | Latitude | Longitude | Altitude | Speed | Heading |
|---|---|---|---|---|---|
| 2026-05-05 18:00 | 51.15590 | -0.17626 | 205 ft | 0 kts | 347° |
| 2026-05-05 18:13 | 51.15582 | -0.17623 | 214 ft | 3 kts | 345° |
| 2026-05-05 18:13 | 51.15563 | -0.17614 | 211 ft | 3 kts | 335° |
| 2026-05-05 18:14 | 51.15546 | -0.17598 | 213 ft | 3 kts | 318° |
| 2026-05-05 18:14 | 51.15534 | -0.17576 | 217 ft | 3 kts | 283° |
| 2026-05-05 18:14 | 51.15533 | -0.17559 | 210 ft | 0 kts | 257° |
| 2026-05-05 18:16 | 51.15526 | -0.17605 | 211 ft | 12 kts | 257° |
| 2026-05-05 18:17 | 51.15504 | -0.17770 | 205 ft | 15 kts | 258° |
| 2026-05-05 18:17 | 51.15482 | -0.17926 | 205 ft | 14 kts | 258° |
| 2026-05-05 18:17 | 51.15463 | -0.18066 | 211 ft | 12 kts | 258° |
| 2026-05-05 18:17 | 51.15419 | -0.18155 | 207 ft | 10 kts | 185° |
| 2026-05-05 18:18 | 51.15355 | -0.18135 | 212 ft | 9 kts | 167° |
| 2026-05-05 18:18 | 51.15300 | -0.18119 | 207 ft | 7 kts | 171° |
| 2026-05-05 18:18 | 51.15253 | -0.18106 | 209 ft | 8 kts | 175° |
| 2026-05-05 18:18 | 51.15198 | -0.18203 | 209 ft | 19 kts | 256° |
| 2026-05-05 18:19 | 51.15178 | -0.18388 | 205 ft | 12 kts | 259° |
| 2026-05-05 18:19 | 51.15160 | -0.18514 | 214 ft | 11 kts | 256° |
| 2026-05-05 18:19 | 51.15143 | -0.18648 | 210 ft | 15 kts | 257° |
| 2026-05-05 18:19 | 51.15114 | -0.18840 | 215 ft | 21 kts | 256° |
| 2026-05-05 18:20 | 51.15083 | -0.19085 | 212 ft | 23 kts | 258° |
| 2026-05-05 18:20 | 51.15048 | -0.19340 | 205 ft | 24 kts | 257° |
| 2026-05-05 18:20 | 51.15014 | -0.19602 | 214 ft | 25 kts | 256° |
| 2026-05-05 18:20 | 51.14986 | -0.19795 | 209 ft | 10 kts | 256° |
| 2026-05-05 18:21 | 51.14970 | -0.19902 | 211 ft | 10 kts | 256° |
| 2026-05-05 18:21 | 51.14954 | -0.20007 | 215 ft | 11 kts | 257° |
| 2026-05-05 18:21 | 51.14939 | -0.20119 | 215 ft | 10 kts | 257° |
| 2026-05-05 18:21 | 51.14925 | -0.20220 | 207 ft | 10 kts | 258° |
| 2026-05-05 18:22 | 51.14903 | -0.20378 | 205 ft | 17 kts | 257° |
| 2026-05-05 18:22 | 51.14875 | -0.20584 | 210 ft | 18 kts | 257° |
| 2026-05-05 18:22 | 51.14779 | -0.20698 | 211 ft | 19 kts | 213° |
| 2026-05-05 18:22 | 51.14750 | -0.20846 | 212 ft | 15 kts | 255° |
| 2026-05-05 18:23 | 51.14719 | -0.21050 | 205 ft | 17 kts | 258° |
| 2026-05-05 18:23 | 51.14698 | -0.21212 | 209 ft | 13 kts | 256° |
| 2026-05-05 18:23 | 51.14663 | -0.21327 | 209 ft | 11 kts | 212° |
| 2026-05-05 18:23 | 51.14596 | -0.21323 | 208 ft | 9 kts | 165° |
| 2026-05-05 18:24 | 51.14548 | -0.21281 | 212 ft | 7 kts | 138° |
| 2026-05-05 18:24 | 51.14524 | -0.21222 | 208 ft | 6 kts | 110° |
| 2026-05-05 18:24 | 51.14523 | -0.21172 | 206 ft | 3 kts | 87° |
| 2026-05-05 18:24 | 51.14524 | -0.21150 | 206 ft | 1 kts | 83° |
| 2026-05-05 18:25 | 51.14524 | -0.21149 | 206 ft | 0 kts | 83° |
| 2026-05-05 18:25 | 51.14536 | -0.21080 | 207 ft | 30 kts | 76° |
| 2026-05-05 18:26 | 51.14636 | -0.20349 | 210 ft | 101 kts | 78° |
| 2026-05-05 18:26 | 51.14826 | -0.18946 | 215 ft | 155 kts | 78° |
| 2026-05-05 18:26 | 51.15056 | -0.17156 | 671 ft | 167 kts | 79° |
| 2026-05-05 18:26 | 51.15282 | -0.15367 | 1495 ft | 164 kts | 77° |
| 2026-05-05 18:27 | 51.15524 | -0.13507 | 1950 ft | 181 kts | 77° |
| 2026-05-05 18:27 | 51.15808 | -0.11396 | 2192 ft | 211 kts | 77° |
| 2026-05-05 18:27 | 51.16139 | -0.09002 | 2799 ft | 224 kts | 79° |
| 2026-05-05 18:27 | 51.16025 | -0.06505 | 3543 ft | 239 kts | 107° |
| 2026-05-05 18:28 | 51.13422 | -0.02878 | 4821 ft | 275 kts | 165° |
| 2026-05-05 18:28 | 51.11553 | -0.02117 | 5715 ft | 279 kts | 165° |
| 2026-05-05 18:28 | 51.09655 | -0.01358 | 6606 ft | 283 kts | 165° |
| 2026-05-05 18:29 | 51.07729 | -0.00584 | 7454 ft | 288 kts | 165° |
| 2026-05-05 18:29 | 51.05770 | 0.00207 | 7856 ft | 290 kts | 165° |
| 2026-05-05 18:29 | 51.03806 | 0.01001 | 7962 ft | 291 kts | 165° |
| 2026-05-05 18:29 | 51.01866 | 0.01786 | 7986 ft | 291 kts | 165° |
| 2026-05-05 18:30 | 50.99905 | 0.02580 | 7976 ft | 290 kts | 165° |
| 2026-05-05 18:30 | 50.97946 | 0.03373 | 7970 ft | 290 kts | 165° |
| 2026-05-05 18:30 | 50.95985 | 0.04167 | 7962 ft | 291 kts | 165° |
| 2026-05-05 18:30 | 50.94015 | 0.04964 | 7997 ft | 294 kts | 165° |
| 2026-05-05 18:31 | 50.92016 | 0.05773 | 8806 ft | 296 kts | 165° |
| 2026-05-05 18:31 | 50.90012 | 0.06584 | 9783 ft | 298 kts | 166° |
| 2026-05-05 18:31 | 50.87999 | 0.07395 | 10630 ft | 298 kts | 165° |
| 2026-05-05 18:31 | 50.85976 | 0.08206 | 11428 ft | 302 kts | 165° |
| 2026-05-05 18:32 | 50.83927 | 0.09033 | 12194 ft | 306 kts | 165° |
| 2026-05-05 18:32 | 50.81863 | 0.09867 | 13054 ft | 307 kts | 165° |
| 2026-05-05 18:32 | 50.79787 | 0.10700 | 13837 ft | 309 kts | 164° |
| 2026-05-05 18:32 | 50.77684 | 0.11508 | 14525 ft | 313 kts | 169° |
| 2026-05-05 18:33 | 50.75495 | 0.11757 | 15145 ft | 320 kts | 181° |
| 2026-05-05 18:33 | 50.73214 | 0.11216 | 15307 ft | 343 kts | 192° |
| 2026-05-05 18:33 | 50.70820 | 0.10325 | 15440 ft | 364 kts | 192° |
| 2026-05-05 18:33 | 50.68311 | 0.09388 | 15860 ft | 375 kts | 193° |
| 2026-05-05 18:34 | 50.65758 | 0.08442 | 16476 ft | 378 kts | 193° |
| 2026-05-05 18:34 | 50.63174 | 0.07497 | 16835 ft | 383 kts | 192° |
| 2026-05-05 18:34 | 50.60577 | 0.06557 | 16925 ft | 384 kts | 192° |
| 2026-05-05 18:34 | 50.57975 | 0.05620 | 16934 ft | 383 kts | 192° |
| 2026-05-05 18:35 | 50.55354 | 0.04679 | 17289 ft | 387 kts | 192° |
| 2026-05-05 18:35 | 50.52722 | 0.03733 | 18003 ft | 389 kts | 192° |
| 2026-05-05 18:35 | 50.50066 | 0.02779 | 18580 ft | 393 kts | 192° |
| 2026-05-05 18:35 | 50.47421 | 0.01829 | 19131 ft | 396 kts | 193° |
| 2026-05-05 18:36 | 50.44719 | 0.00859 | 19708 ft | 399 kts | 192° |
| 2026-05-05 18:36 | 50.42008 | -0.00112 | 20275 ft | 402 kts | 193° |
| 2026-05-05 18:36 | 50.39267 | -0.01088 | 20840 ft | 405 kts | 192° |
| 2026-05-05 18:36 | 50.36511 | -0.02063 | 21418 ft | 408 kts | 192° |
| 2026-05-05 18:37 | 50.33731 | -0.03046 | 21949 ft | 411 kts | 192° |
| 2026-05-05 18:37 | 50.30932 | -0.04041 | 22472 ft | 414 kts | 192° |
| 2026-05-05 18:37 | 50.28110 | -0.05024 | 22983 ft | 417 kts | 190° |
| 2026-05-05 18:37 | 50.25210 | -0.05269 | 23463 ft | 419 kts | 173° |
| 2026-05-05 18:38 | 50.22345 | -0.04360 | 23883 ft | 421 kts | 165° |
| 2026-05-05 18:38 | 50.19503 | -0.03210 | 24331 ft | 422 kts | 164° |
| 2026-05-05 18:38 | 50.16658 | -0.02033 | 24771 ft | 424 kts | 164° |
| 2026-05-05 18:38 | 50.13840 | -0.00859 | 25194 ft | 425 kts | 163° |
| 2026-05-05 18:39 | 50.10944 | 0.00349 | 25648 ft | 425 kts | 164° |
| 2026-05-05 18:39 | 50.08122 | 0.01521 | 26111 ft | 425 kts | 164° |
| 2026-05-05 18:39 | 50.05260 | 0.02701 | 26535 ft | 426 kts | 165° |
| 2026-05-05 18:39 | 50.02391 | 0.03873 | 26953 ft | 426 kts | 164° |
| 2026-05-05 18:40 | 49.99517 | 0.05039 | 27344 ft | 428 kts | 165° |
| 2026-05-05 18:40 | 49.96632 | 0.06211 | 27714 ft | 430 kts | 164° |
| 2026-05-05 18:40 | 49.93739 | 0.07388 | 28115 ft | 430 kts | 164° |
| 2026-05-05 18:40 | 49.90837 | 0.08571 | 28465 ft | 432 kts | 165° |
| 2026-05-05 18:41 | 49.87930 | 0.09756 | 28844 ft | 432 kts | 163° |
| 2026-05-05 18:41 | 49.85030 | 0.10935 | 29217 ft | 432 kts | 164° |
| 2026-05-05 18:41 | 49.82106 | 0.12125 | 29465 ft | 435 kts | 164° |
| 2026-05-05 18:41 | 49.79177 | 0.13318 | 29798 ft | 436 kts | 164° |
| 2026-05-05 18:42 | 49.76224 | 0.14516 | 30009 ft | 439 kts | 164° |
| 2026-05-05 18:42 | 49.73265 | 0.15713 | 30268 ft | 440 kts | 163° |
| 2026-05-05 18:42 | 49.70304 | 0.16910 | 30506 ft | 441 kts | 164° |
| 2026-05-05 18:42 | 49.67327 | 0.18108 | 30753 ft | 441 kts | 164° |
| 2026-05-05 18:43 | 49.65362 | 0.18896 | 30965 ft | 440 kts | 163° |
| 2026-05-05 18:43 | 49.62402 | 0.20082 | 31309 ft | 439 kts | 163° |
| 2026-05-05 18:43 | 49.59406 | 0.21284 | 31607 ft | 438 kts | 163° |
| 2026-05-05 18:43 | 49.56460 | 0.22467 | 31928 ft | 438 kts | 164° |
| 2026-05-05 18:44 | 49.53548 | 0.23633 | 32200 ft | 438 kts | 164° |
| 2026-05-05 18:44 | 49.50598 | 0.24812 | 32526 ft | 437 kts | 163° |
| 2026-05-05 18:44 | 49.47649 | 0.25989 | 32791 ft | 438 kts | 163° |
| 2026-05-05 18:44 | 49.44696 | 0.27169 | 32887 ft | 435 kts | 163° |
| 2026-05-05 18:45 | 49.38874 | 0.29505 | 32887 ft | 431 kts | 163° |
| 2026-05-05 18:45 | 49.33078 | 0.31818 | 32899 ft | 430 kts | 163° |
| 2026-05-05 18:46 | 49.27281 | 0.34107 | 32892 ft | 430 kts | 163° |
| 2026-05-05 18:46 | 49.21482 | 0.36394 | 32882 ft | 430 kts | 163° |
| 2026-05-05 18:47 | 49.15683 | 0.38685 | 32882 ft | 430 kts | 163° |
| 2026-05-05 18:47 | 49.09888 | 0.40973 | 32881 ft | 430 kts | 163° |
| 2026-05-05 18:48 | 49.04129 | 0.43231 | 32890 ft | 430 kts | 163° |
| 2026-05-05 18:48 | 48.98339 | 0.45504 | 32884 ft | 430 kts | 163° |
| 2026-05-05 18:49 | 48.92550 | 0.47782 | 32883 ft | 429 kts | 163° |
| 2026-05-05 18:49 | 48.86761 | 0.50037 | 32878 ft | 430 kts | 163° |
| 2026-05-05 18:50 | 48.80968 | 0.52275 | 32874 ft | 429 kts | 163° |
| 2026-05-05 18:50 | 48.75174 | 0.54528 | 32871 ft | 429 kts | 163° |
| 2026-05-05 18:51 | 48.69388 | 0.56803 | 32872 ft | 429 kts | 163° |
| 2026-05-05 18:51 | 48.63606 | 0.59091 | 32883 ft | 429 kts | 163° |
| 2026-05-05 18:52 | 48.57848 | 0.61345 | 32870 ft | 430 kts | 163° |
| 2026-05-05 18:52 | 48.52051 | 0.63584 | 32867 ft | 430 kts | 163° |
| 2026-05-05 18:53 | 48.46261 | 0.65887 | 32868 ft | 430 kts | 162° |
| 2026-05-05 18:53 | 48.40485 | 0.68265 | 32869 ft | 430 kts | 162° |
| 2026-05-05 18:54 | 48.34705 | 0.70640 | 32851 ft | 431 kts | 162° |
| 2026-05-05 18:54 | 48.28913 | 0.72982 | 32851 ft | 431 kts | 162° |
| 2026-05-05 18:55 | 48.23108 | 0.75310 | 32854 ft | 432 kts | 162° |
| 2026-05-05 18:55 | 48.17289 | 0.77604 | 32852 ft | 432 kts | 163° |
| 2026-05-05 18:56 | 48.11500 | 0.79865 | 32851 ft | 433 kts | 163° |
| 2026-05-05 18:56 | 48.05669 | 0.82149 | 32850 ft | 434 kts | 163° |
| 2026-05-05 18:57 | 47.99826 | 0.84434 | 32855 ft | 434 kts | 163° |
| 2026-05-05 18:57 | 47.93979 | 0.86711 | 32841 ft | 434 kts | 163° |
| 2026-05-05 18:58 | 47.88133 | 0.88987 | 32839 ft | 435 kts | 163° |
| 2026-05-05 18:58 | 47.82276 | 0.91267 | 32839 ft | 435 kts | 163° |
| 2026-05-05 18:59 | 47.76415 | 0.93542 | 32840 ft | 435 kts | 164° |
| 2026-05-05 18:59 | 47.70543 | 0.95815 | 32835 ft | 436 kts | 164° |
| 2026-05-05 19:00 | 47.64666 | 0.98086 | 32837 ft | 437 kts | 164° |
| 2026-05-05 19:00 | 47.58808 | 1.00338 | 32847 ft | 437 kts | 164° |
| 2026-05-05 19:01 | 47.52912 | 1.02597 | 32841 ft | 437 kts | 164° |
| 2026-05-05 19:01 | 47.47015 | 1.04848 | 32840 ft | 437 kts | 164° |
| 2026-05-05 19:02 | 47.41063 | 1.06370 | 32841 ft | 439 kts | 178° |
| 2026-05-05 19:02 | 47.34949 | 1.06255 | 32856 ft | 439 kts | 180° |
| 2026-05-05 19:03 | 47.28847 | 1.06105 | 32862 ft | 438 kts | 180° |
| 2026-05-05 19:03 | 47.22751 | 1.05957 | 32861 ft | 438 kts | 180° |
| 2026-05-05 19:04 | 47.19716 | 1.06136 | 32843 ft | 437 kts | 168° |
| 2026-05-05 19:04 | 47.16778 | 1.07258 | 32842 ft | 436 kts | 162° |
| 2026-05-05 19:04 | 47.10856 | 1.09218 | 32855 ft | 437 kts | 172° |
| 2026-05-05 19:05 | 47.04821 | 1.10302 | 32863 ft | 437 kts | 172° |
| 2026-05-05 19:05 | 46.98837 | 1.11369 | 32865 ft | 436 kts | 172° |
| 2026-05-05 19:06 | 46.92815 | 1.12450 | 32871 ft | 435 kts | 172° |
| 2026-05-05 19:06 | 46.86804 | 1.13518 | 32870 ft | 435 kts | 172° |
| 2026-05-05 19:07 | 46.80796 | 1.14580 | 32867 ft | 434 kts | 172° |
| 2026-05-05 19:07 | 46.74796 | 1.15637 | 32864 ft | 434 kts | 172° |
| 2026-05-05 19:08 | 46.68793 | 1.16697 | 32865 ft | 434 kts | 172° |
| 2026-05-05 19:08 | 46.62796 | 1.17745 | 32869 ft | 434 kts | 172° |
| 2026-05-05 19:09 | 46.56832 | 1.18789 | 32866 ft | 434 kts | 172° |
| 2026-05-05 19:09 | 46.50837 | 1.19847 | 32881 ft | 433 kts | 173° |
| 2026-05-05 19:10 | 46.44854 | 1.20897 | 32879 ft | 433 kts | 173° |
| 2026-05-05 19:10 | 46.38880 | 1.21934 | 32888 ft | 432 kts | 173° |
| 2026-05-05 19:11 | 46.32923 | 1.22973 | 32896 ft | 431 kts | 173° |
| 2026-05-05 19:11 | 46.26965 | 1.24012 | 32905 ft | 430 kts | 174° |
| 2026-05-05 19:12 | 46.21026 | 1.25032 | 32907 ft | 429 kts | 174° |
| 2026-05-05 19:12 | 46.15095 | 1.26058 | 32912 ft | 429 kts | 174° |
| 2026-05-05 19:13 | 46.09171 | 1.27090 | 32919 ft | 428 kts | 174° |
| 2026-05-05 19:13 | 46.03264 | 1.28110 | 32921 ft | 427 kts | 174° |
| 2026-05-05 19:14 | 45.97398 | 1.29108 | 32924 ft | 427 kts | 174° |
| 2026-05-05 19:14 | 45.91503 | 1.30116 | 32923 ft | 426 kts | 174° |
| 2026-05-05 19:15 | 45.85613 | 1.31127 | 32917 ft | 426 kts | 174° |
| 2026-05-05 19:15 | 45.79725 | 1.32131 | 32914 ft | 426 kts | 174° |
| 2026-05-05 19:16 | 45.73837 | 1.33136 | 32913 ft | 426 kts | 174° |
| 2026-05-05 19:16 | 45.67952 | 1.34138 | 32907 ft | 426 kts | 174° |
| 2026-05-05 19:17 | 45.62061 | 1.35140 | 32906 ft | 426 kts | 174° |
| 2026-05-05 19:17 | 45.56175 | 1.36135 | 32907 ft | 426 kts | 174° |
| 2026-05-05 19:18 | 45.50281 | 1.37124 | 32911 ft | 426 kts | 174° |
| 2026-05-05 19:18 | 45.44429 | 1.38565 | 32912 ft | 427 kts | 168° |
| 2026-05-05 19:19 | 45.38666 | 1.40437 | 32912 ft | 427 kts | 168° |
| 2026-05-05 19:19 | 45.32867 | 1.42301 | 32920 ft | 427 kts | 169° |
| 2026-05-05 19:20 | 45.27066 | 1.44155 | 32923 ft | 427 kts | 169° |
| 2026-05-05 19:20 | 45.21270 | 1.46012 | 32930 ft | 427 kts | 169° |
| 2026-05-05 19:21 | 45.15474 | 1.47860 | 32932 ft | 427 kts | 169° |
| 2026-05-05 19:21 | 45.09682 | 1.49707 | 32935 ft | 426 kts | 169° |
| 2026-05-05 19:22 | 45.03891 | 1.51552 | 32936 ft | 426 kts | 169° |
| 2026-05-05 19:22 | 44.98103 | 1.53393 | 32894 ft | 426 kts | 170° |
| 2026-05-05 19:23 | 44.92363 | 1.55211 | 32908 ft | 425 kts | 170° |
| 2026-05-05 19:23 | 44.86583 | 1.57043 | 32913 ft | 425 kts | 169° |
| 2026-05-05 19:24 | 44.80796 | 1.58868 | 32917 ft | 425 kts | 170° |
| 2026-05-05 19:24 | 44.75061 | 1.60667 | 32926 ft | 425 kts | 170° |
| 2026-05-05 19:25 | 44.69292 | 1.62480 | 32923 ft | 424 kts | 170° |
| 2026-05-05 19:25 | 44.63528 | 1.64297 | 32927 ft | 424 kts | 170° |
| 2026-05-05 19:26 | 44.57755 | 1.66103 | 32928 ft | 424 kts | 170° |
| 2026-05-05 19:26 | 44.51991 | 1.67890 | 32938 ft | 424 kts | 170° |
| 2026-05-05 19:27 | 44.46227 | 1.69685 | 32926 ft | 424 kts | 170° |
| 2026-05-05 19:27 | 44.40463 | 1.71480 | 32925 ft | 424 kts | 171° |
| 2026-05-05 19:28 | 44.34696 | 1.73275 | 32934 ft | 424 kts | 171° |
| 2026-05-05 19:28 | 44.28939 | 1.75046 | 32938 ft | 424 kts | 172° |
| 2026-05-05 19:29 | 44.23141 | 1.76470 | 32939 ft | 422 kts | 174° |
| 2026-05-05 19:29 | 44.17326 | 1.77651 | 32937 ft | 422 kts | 175° |
| 2026-05-05 19:30 | 44.11519 | 1.78847 | 32945 ft | 422 kts | 174° |
| 2026-05-05 19:30 | 44.05758 | 1.80100 | 32948 ft | 422 kts | 174° |
| 2026-05-05 19:31 | 43.99961 | 1.81394 | 32932 ft | 422 kts | 174° |
| 2026-05-05 19:31 | 43.94158 | 1.82629 | 32944 ft | 421 kts | 176° |
| 2026-05-05 19:32 | 43.89319 | 1.83228 | 32951 ft | 419 kts | 180° |
| 2026-05-05 19:32 | 43.83494 | 1.83651 | 32959 ft | 419 kts | 180° |
| 2026-05-05 19:33 | 43.77669 | 1.84105 | 32958 ft | 419 kts | 180° |
| 2026-05-05 19:33 | 43.71847 | 1.84655 | 32971 ft | 419 kts | 179° |
| 2026-05-05 19:34 | 43.66056 | 1.85237 | 32973 ft | 419 kts | 179° |
| 2026-05-05 19:35 | 43.57320 | 1.86096 | 32965 ft | 419 kts | 180° |
| 2026-05-05 19:35 | 43.51496 | 1.86659 | 32970 ft | 420 kts | 180° |
| 2026-05-05 19:36 | 43.45663 | 1.87214 | 32970 ft | 419 kts | 180° |
| 2026-05-05 19:36 | 43.39835 | 1.87773 | 32948 ft | 419 kts | 180° |
| 2026-05-05 19:37 | 43.34006 | 1.88335 | 32953 ft | 420 kts | 180° |
| 2026-05-05 19:37 | 43.28173 | 1.88896 | 32969 ft | 420 kts | 180° |
| 2026-05-05 19:38 | 43.22373 | 1.89447 | 32974 ft | 420 kts | 180° |
| 2026-05-05 19:38 | 43.16503 | 1.90001 | 32962 ft | 420 kts | 181° |
| 2026-05-05 19:39 | 43.10704 | 1.90554 | 32968 ft | 420 kts | 180° |
| 2026-05-05 19:39 | 43.04873 | 1.91114 | 32964 ft | 419 kts | 181° |
| 2026-05-05 19:40 | 42.99064 | 1.91670 | 32954 ft | 418 kts | 181° |
| 2026-05-05 19:40 | 42.93269 | 1.92216 | 32979 ft | 417 kts | 181° |
| 2026-05-05 19:41 | 42.87492 | 1.92757 | 32987 ft | 416 kts | 181° |
| 2026-05-05 19:41 | 42.81716 | 1.93302 | 32987 ft | 415 kts | 181° |
| 2026-05-05 19:42 | 42.75951 | 1.93849 | 32983 ft | 415 kts | 181° |
| 2026-05-05 19:42 | 42.70187 | 1.94397 | 32979 ft | 415 kts | 181° |
| 2026-05-05 19:43 | 42.64454 | 1.95683 | 32967 ft | 422 kts | 171° |
| 2026-05-05 19:43 | 42.58810 | 1.97725 | 32944 ft | 423 kts | 171° |
| 2026-05-05 19:44 | 42.53122 | 1.99773 | 32943 ft | 423 kts | 171° |
| 2026-05-05 19:44 | 42.47434 | 2.01818 | 32948 ft | 423 kts | 171° |
| 2026-05-05 19:45 | 42.41747 | 2.03864 | 32931 ft | 422 kts | 171° |
| 2026-05-05 19:45 | 42.36060 | 2.05902 | 32916 ft | 423 kts | 172° |
| 2026-05-05 19:46 | 42.30365 | 2.07930 | 32922 ft | 423 kts | 172° |
| 2026-05-05 19:46 | 42.24667 | 2.09950 | 32673 ft | 424 kts | 172° |
| 2026-05-05 19:46 | 42.21818 | 2.10961 | 32383 ft | 423 kts | 172° |
| 2026-05-05 19:47 | 42.18966 | 2.11973 | 32100 ft | 424 kts | 172° |
| 2026-05-05 19:47 | 42.16149 | 2.12968 | 31802 ft | 424 kts | 173° |
| 2026-05-05 19:47 | 42.13298 | 2.13976 | 31526 ft | 424 kts | 173° |
| 2026-05-05 19:47 | 42.10443 | 2.14984 | 31250 ft | 424 kts | 173° |
| 2026-05-05 19:48 | 42.07587 | 2.15996 | 30970 ft | 424 kts | 173° |
| 2026-05-05 19:48 | 42.04734 | 2.17009 | 30700 ft | 423 kts | 173° |
| 2026-05-05 19:48 | 42.01898 | 2.18011 | 30432 ft | 421 kts | 173° |
| 2026-05-05 19:48 | 41.99075 | 2.19001 | 30167 ft | 418 kts | 173° |
| 2026-05-05 19:49 | 41.96263 | 2.19987 | 29840 ft | 417 kts | 174° |
| 2026-05-05 19:49 | 41.93470 | 2.20967 | 29536 ft | 413 kts | 174° |
| 2026-05-05 19:49 | 41.90699 | 2.21939 | 29224 ft | 410 kts | 174° |
| 2026-05-05 19:49 | 41.87950 | 2.22905 | 28909 ft | 408 kts | 174° |
| 2026-05-05 19:50 | 41.85210 | 2.23866 | 28591 ft | 406 kts | 174° |
| 2026-05-05 19:50 | 41.82486 | 2.24820 | 28292 ft | 403 kts | 174° |
| 2026-05-05 19:50 | 41.79776 | 2.25766 | 27994 ft | 401 kts | 173° |
| 2026-05-05 19:50 | 41.77083 | 2.26707 | 27701 ft | 399 kts | 173° |
| 2026-05-05 19:51 | 41.74403 | 2.27643 | 27371 ft | 397 kts | 174° |
| 2026-05-05 19:51 | 41.71735 | 2.28575 | 27081 ft | 395 kts | 174° |
| 2026-05-05 19:51 | 41.69080 | 2.29502 | 26783 ft | 393 kts | 174° |
| 2026-05-05 19:51 | 41.66447 | 2.30422 | 26498 ft | 390 kts | 174° |
| 2026-05-05 19:52 | 41.63824 | 2.31334 | 26219 ft | 388 kts | 174° |
| 2026-05-05 19:52 | 41.61217 | 2.32239 | 25943 ft | 387 kts | 174° |
| 2026-05-05 19:52 | 41.58614 | 2.33148 | 25672 ft | 385 kts | 174° |
| 2026-05-05 19:52 | 41.56027 | 2.34051 | 25399 ft | 384 kts | 174° |
| 2026-05-05 19:53 | 41.53442 | 2.34949 | 25090 ft | 383 kts | 174° |
| 2026-05-05 19:53 | 41.50876 | 2.35835 | 24827 ft | 380 kts | 175° |
| 2026-05-05 19:53 | 41.48326 | 2.36714 | 24563 ft | 378 kts | 175° |
| 2026-05-05 19:53 | 41.45785 | 2.37595 | 24307 ft | 376 kts | 175° |
| 2026-05-05 19:54 | 41.43258 | 2.38469 | 24051 ft | 375 kts | 175° |
| 2026-05-05 19:54 | 41.40737 | 2.39341 | 23797 ft | 373 kts | 175° |
| 2026-05-05 19:54 | 41.38229 | 2.40206 | 23546 ft | 372 kts | 174° |
| 2026-05-05 19:54 | 41.35729 | 2.41070 | 23252 ft | 370 kts | 174° |
| 2026-05-05 19:55 | 41.33266 | 2.41916 | 22953 ft | 369 kts | 174° |
| 2026-05-05 19:55 | 41.30777 | 2.42768 | 22605 ft | 369 kts | 175° |
| 2026-05-05 19:55 | 41.28293 | 2.43621 | 22310 ft | 368 kts | 174° |
| 2026-05-05 19:55 | 41.25813 | 2.44476 | 22014 ft | 367 kts | 174° |
| 2026-05-05 19:56 | 41.23343 | 2.45334 | 21724 ft | 367 kts | 174° |
| 2026-05-05 19:56 | 41.20877 | 2.46187 | 21437 ft | 366 kts | 174° |
| 2026-05-05 19:56 | 41.18419 | 2.47036 | 21152 ft | 364 kts | 173° |
| 2026-05-05 19:56 | 41.15968 | 2.47882 | 20871 ft | 363 kts | 173° |
| 2026-05-05 19:57 | 41.13522 | 2.48722 | 20591 ft | 362 kts | 173° |
| 2026-05-05 19:57 | 41.11907 | 2.49274 | 20408 ft | 362 kts | 173° |
| 2026-05-05 19:57 | 41.08657 | 2.50384 | 20023 ft | 360 kts | 173° |
| 2026-05-05 19:57 | 41.06235 | 2.51207 | 19756 ft | 358 kts | 173° |
| 2026-05-05 19:58 | 41.03825 | 2.52027 | 19481 ft | 357 kts | 173° |
| 2026-05-05 19:58 | 41.01424 | 2.52842 | 19213 ft | 356 kts | 173° |
| 2026-05-05 19:58 | 40.99028 | 2.53654 | 18959 ft | 355 kts | 172° |
| 2026-05-05 19:58 | 40.96637 | 2.54467 | 18700 ft | 354 kts | 172° |
| 2026-05-05 19:59 | 40.94251 | 2.55278 | 18441 ft | 353 kts | 172° |
| 2026-05-05 19:59 | 40.91907 | 2.56076 | 18180 ft | 352 kts | 172° |
| 2026-05-05 19:59 | 40.89537 | 2.56888 | 17884 ft | 351 kts | 172° |
| 2026-05-05 19:59 | 40.87177 | 2.57695 | 17565 ft | 350 kts | 173° |
| 2026-05-05 20:00 | 40.84826 | 2.58499 | 17256 ft | 348 kts | 173° |
| 2026-05-05 20:00 | 40.82486 | 2.59296 | 16968 ft | 347 kts | 173° |
| 2026-05-05 20:00 | 40.80154 | 2.60089 | 16675 ft | 345 kts | 173° |
| 2026-05-05 20:00 | 40.77833 | 2.60878 | 16394 ft | 344 kts | 172° |
| 2026-05-05 20:01 | 40.75520 | 2.61662 | 16112 ft | 343 kts | 172° |
| 2026-05-05 20:01 | 40.73213 | 2.62443 | 15832 ft | 342 kts | 172° |
| 2026-05-05 20:01 | 40.70913 | 2.63219 | 15561 ft | 340 kts | 172° |
| 2026-05-05 20:01 | 40.68624 | 2.63991 | 15287 ft | 339 kts | 172° |
| 2026-05-05 20:02 | 40.66344 | 2.64761 | 15014 ft | 337 kts | 171° |
| 2026-05-05 20:02 | 40.64073 | 2.65527 | 14745 ft | 336 kts | 171° |
| 2026-05-05 20:02 | 40.61839 | 2.66279 | 14483 ft | 335 kts | 171° |
| 2026-05-05 20:02 | 40.59584 | 2.67044 | 14219 ft | 334 kts | 171° |
| 2026-05-05 20:03 | 40.57338 | 2.67803 | 13939 ft | 332 kts | 171° |
| 2026-05-05 20:03 | 40.55103 | 2.68555 | 13673 ft | 330 kts | 171° |
| 2026-05-05 20:03 | 40.52874 | 2.69303 | 13379 ft | 329 kts | 171° |
| 2026-05-05 20:03 | 40.50662 | 2.70101 | 13086 ft | 331 kts | 166° |
| 2026-05-05 20:04 | 40.48537 | 2.71314 | 12796 ft | 336 kts | 157° |
| 2026-05-05 20:04 | 40.46492 | 2.72806 | 12511 ft | 336 kts | 156° |
| 2026-05-05 20:04 | 40.44450 | 2.74292 | 12237 ft | 335 kts | 156° |
| 2026-05-05 20:04 | 40.42407 | 2.75773 | 11938 ft | 336 kts | 156° |
| 2026-05-05 20:05 | 40.40362 | 2.77252 | 11651 ft | 335 kts | 156° |
| 2026-05-05 20:05 | 40.38319 | 2.78724 | 11374 ft | 335 kts | 156° |
| 2026-05-05 20:05 | 40.36278 | 2.80195 | 11109 ft | 334 kts | 156° |
| 2026-05-05 20:05 | 40.34245 | 2.81660 | 10835 ft | 333 kts | 156° |
| 2026-05-05 20:06 | 40.32214 | 2.83127 | 10570 ft | 333 kts | 156° |
| 2026-05-05 20:06 | 40.30213 | 2.84573 | 10305 ft | 333 kts | 156° |
| 2026-05-05 20:06 | 40.28199 | 2.86031 | 10038 ft | 326 kts | 156° |
| 2026-05-05 20:06 | 40.26237 | 2.87453 | 9771 ft | 318 kts | 156° |
| 2026-05-05 20:07 | 40.24327 | 2.88834 | 9477 ft | 310 kts | 156° |
| 2026-05-05 20:07 | 40.22458 | 2.90181 | 9182 ft | 304 kts | 155° |
| 2026-05-05 20:07 | 40.20628 | 2.91500 | 8878 ft | 297 kts | 155° |
| 2026-05-05 20:07 | 40.18831 | 2.92792 | 8596 ft | 293 kts | 155° |
| 2026-05-05 20:08 | 40.17050 | 2.94068 | 8311 ft | 291 kts | 155° |
| 2026-05-05 20:08 | 40.15272 | 2.95339 | 8040 ft | 290 kts | 155° |
| 2026-05-05 20:08 | 40.13502 | 2.96605 | 7921 ft | 289 kts | 155° |
| 2026-05-05 20:08 | 40.11757 | 2.97855 | 7927 ft | 290 kts | 155° |
| 2026-05-05 20:09 | 40.09985 | 2.99124 | 7930 ft | 290 kts | 155° |
| 2026-05-05 20:09 | 40.08214 | 3.00392 | 7931 ft | 290 kts | 155° |
| 2026-05-05 20:09 | 40.06443 | 3.01658 | 7931 ft | 290 kts | 155° |
| 2026-05-05 20:09 | 40.04674 | 3.02923 | 7931 ft | 290 kts | 155° |
| 2026-05-05 20:10 | 40.02905 | 3.04186 | 7935 ft | 290 kts | 155° |
| 2026-05-05 20:10 | 40.01134 | 3.05451 | 7928 ft | 290 kts | 155° |
| 2026-05-05 20:10 | 39.99368 | 3.06715 | 7932 ft | 288 kts | 155° |
| 2026-05-05 20:10 | 39.97607 | 3.07975 | 7931 ft | 289 kts | 155° |
| 2026-05-05 20:11 | 39.95867 | 3.09216 | 7929 ft | 289 kts | 155° |
| 2026-05-05 20:11 | 39.94088 | 3.10418 | 7929 ft | 287 kts | 162° |
| 2026-05-05 20:11 | 39.92186 | 3.11103 | 7865 ft | 282 kts | 176° |
| 2026-05-05 20:11 | 39.90261 | 3.11155 | 7736 ft | 270 kts | 189° |
| 2026-05-05 20:12 | 39.88438 | 3.10924 | 7616 ft | 258 kts | 189° |
| 2026-05-05 20:12 | 39.86664 | 3.10700 | 7487 ft | 255 kts | 189° |
| 2026-05-05 20:12 | 39.84899 | 3.10475 | 7368 ft | 254 kts | 189° |
| 2026-05-05 20:12 | 39.83135 | 3.10251 | 7243 ft | 254 kts | 190° |
| 2026-05-05 20:13 | 39.81375 | 3.10028 | 7013 ft | 254 kts | 189° |
| 2026-05-05 20:13 | 39.79619 | 3.09810 | 6767 ft | 253 kts | 189° |
| 2026-05-05 20:13 | 39.77862 | 3.09594 | 6525 ft | 253 kts | 189° |
| 2026-05-05 20:13 | 39.76113 | 3.09380 | 6272 ft | 249 kts | 189° |
| 2026-05-05 20:14 | 39.74413 | 3.09176 | 6019 ft | 243 kts | 189° |
| 2026-05-05 20:14 | 39.72749 | 3.08968 | 5763 ft | 236 kts | 192° |
| 2026-05-05 20:14 | 39.71237 | 3.08323 | 5510 ft | 224 kts | 214° |
| 2026-05-05 20:14 | 39.70084 | 3.07044 | 5263 ft | 216 kts | 236° |
| 2026-05-05 20:15 | 39.69290 | 3.05435 | 5015 ft | 214 kts | 242° |
| 2026-05-05 20:15 | 39.68517 | 3.03774 | 4772 ft | 214 kts | 241° |
| 2026-05-05 20:15 | 39.67747 | 3.02126 | 4517 ft | 213 kts | 242° |
| 2026-05-05 20:15 | 39.66977 | 3.00483 | 4255 ft | 213 kts | 241° |
| 2026-05-05 20:16 | 39.66210 | 2.98845 | 4000 ft | 211 kts | 241° |
| 2026-05-05 20:16 | 39.65451 | 2.97227 | 3771 ft | 208 kts | 241° |
| 2026-05-05 20:16 | 39.64707 | 2.95642 | 3506 ft | 203 kts | 241° |
| 2026-05-05 20:16 | 39.63984 | 2.94104 | 3259 ft | 194 kts | 241° |
| 2026-05-05 20:17 | 39.63304 | 2.92658 | 3051 ft | 180 kts | 241° |
| 2026-05-05 20:17 | 39.62652 | 2.91269 | 2989 ft | 180 kts | 241° |
| 2026-05-05 20:17 | 39.62003 | 2.89886 | 2858 ft | 178 kts | 241° |
| 2026-05-05 20:17 | 39.61355 | 2.88508 | 2424 ft | 179 kts | 241° |
| 2026-05-05 20:18 | 39.60722 | 2.87164 | 2164 ft | 170 kts | 241° |
| 2026-05-05 20:18 | 39.60124 | 2.85897 | 1903 ft | 163 kts | 239° |
| 2026-05-05 20:18 | 39.59531 | 2.84626 | 1544 ft | 162 kts | 239° |
| 2026-05-05 20:18 | 39.58974 | 2.83432 | 1474 ft | 147 kts | 239° |
| 2026-05-05 20:19 | 39.58438 | 2.82326 | 1246 ft | 144 kts | 238° |
| 2026-05-05 20:19 | 39.57920 | 2.81226 | 965 ft | 142 kts | 240° |
| 2026-05-05 20:19 | 39.57433 | 2.80131 | 719 ft | 140 kts | 238° |
| 2026-05-05 20:19 | 39.56914 | 2.79084 | 573 ft | 139 kts | 238° |
| 2026-05-05 20:20 | 39.56420 | 2.77999 | 372 ft | 138 kts | 237° |
| 2026-05-05 20:20 | 39.55908 | 2.76937 | 180 ft | 140 kts | 240° |
| 2026-05-05 20:20 | 39.55414 | 2.75909 | 55 ft | 139 kts | 237° |
| 2026-05-05 20:20 | 39.54942 | 2.74921 | 30 ft | 108 kts | 238° |
| 2026-05-05 20:21 | 39.54648 | 2.74285 | 30 ft | 59 kts | 238° |
| 2026-05-05 20:21 | 39.54500 | 2.73976 | 30 ft | 34 kts | 239° |
| 2026-05-05 20:21 | 39.54445 | 2.73764 | 30 ft | 20 kts | 300° |
| 2026-05-05 20:21 | 39.54512 | 2.73705 | 30 ft | 1 kts | 329° |
| 2026-05-05 20:22 | 39.54513 | 2.73704 | 30 ft | 1 kts | 329° |
| 2026-05-05 20:22 | 39.54530 | 2.73691 | 30 ft | 3 kts | 330° |
| 2026-05-05 20:22 | 39.54542 | 2.73682 | 30 ft | 0 kts | 331° |
| 2026-05-05 20:23 | 39.54561 | 2.73667 | 30 ft | 10 kts | 327° |
| 2026-05-05 20:24 | 39.54619 | 2.73629 | 30 ft | 9 kts | 354° |
| 2026-05-05 20:24 | 39.54664 | 2.73670 | 30 ft | 8 kts | 61° |
| 2026-05-05 20:24 | 39.54688 | 2.73730 | 30 ft | 7 kts | 62° |
| 2026-05-05 20:24 | 39.54712 | 2.73783 | 30 ft | 7 kts | 57° |
| 2026-05-05 20:25 | 39.54738 | 2.73833 | 30 ft | 9 kts | 58° |
| 2026-05-05 20:25 | 39.54789 | 2.73941 | 30 ft | 16 kts | 57° |
| 2026-05-05 20:25 | 39.54889 | 2.73969 | 30 ft | 12 kts | 327° |
| 2026-05-05 20:25 | 39.54937 | 2.73930 | 30 ft | 12 kts | 329° |
| 2026-05-05 20:26 | 39.55028 | 2.73859 | 30 ft | 17 kts | 329° |
| 2026-05-05 20:26 | 39.55127 | 2.73781 | 30 ft | 17 kts | 328° |
| 2026-05-05 20:26 | 39.55175 | 2.73693 | 30 ft | 11 kts | 256° |
| 2026-05-05 20:26 | 39.55204 | 2.73620 | 30 ft | 10 kts | 326° |
| 2026-05-05 20:27 | 39.55289 | 2.73548 | 30 ft | 22 kts | 330° |
| 2026-05-05 20:27 | 39.55402 | 2.73462 | 30 ft | 14 kts | 322° |
| 2026-05-05 20:27 | 39.55402 | 2.73358 | 30 ft | 13 kts | 239° |
| 2026-05-05 20:27 | 39.55351 | 2.73250 | 30 ft | 15 kts | 239° |
| 2026-05-05 20:28 | 39.55294 | 2.73130 | 30 ft | 17 kts | 237° |
| 2026-05-05 20:28 | 39.55231 | 2.72998 | 30 ft | 18 kts | 239° |
| 2026-05-05 20:28 | 39.55168 | 2.72866 | 30 ft | 15 kts | 239° |
| 2026-05-05 20:28 | 39.55126 | 2.72778 | 30 ft | 6 kts | 237° |
| 2026-05-05 20:29 | 39.55096 | 2.72774 | 30 ft | 5 kts | 163° |
| 2026-05-05 20:29 | 39.55070 | 2.72789 | 30 ft | 3 kts | 151° |
| 2026-05-05 20:29 | 39.55053 | 2.72802 | 30 ft | 0 kts | 149° |